createdAt,value
2018-06-03T00:00:26.739Z,3.70
2018-06-03T00:02:54.371Z,3.50
2018-06-03T00:05:22.068Z,3.10
2018-06-03T00:07:49.671Z,2.90
2018-06-03T00:10:17.321Z,3.27
2018-06-03T00:12:45.033Z,3.20
2018-06-03T00:15:12.617Z,3.00
2018-06-03T00:17:40.306Z,2.90
2018-06-03T00:20:07.987Z,3.10
2018-06-03T00:22:35.622Z,3.53
2018-06-03T00:25:03.285Z,3.93
2018-06-03T00:27:30.996Z,3.60
2018-06-03T00:29:59.203Z,3.53
2018-06-03T00:32:26.848Z,3.53
2018-06-03T00:34:54.545Z,2.63
2018-06-03T00:37:22.186Z,3.30
2018-06-03T00:39:49.855Z,3.33
2018-06-03T00:42:17.565Z,3.63
2018-06-03T00:44:45.161Z,3.43
2018-06-03T00:47:12.831Z,3.37
2018-06-03T00:49:40.554Z,3.80
2018-06-03T00:52:08.142Z,3.50
2018-06-03T00:54:35.803Z,3.13
2018-06-03T00:57:11.941Z,3.30
2018-06-03T00:59:39.555Z,2.77
2018-06-03T01:02:07.232Z,3.43
2018-06-03T01:04:35.158Z,3.40
2018-06-03T01:07:02.745Z,2.80
2018-06-03T01:09:30.382Z,2.90
2018-06-03T01:11:58.340Z,3.10
2018-06-03T01:14:25.927Z,3.50
2018-06-03T01:16:53.555Z,2.77
2018-06-03T01:19:21.714Z,2.77
2018-06-03T01:21:49.281Z,3.23
2018-06-03T01:24:16.913Z,3.40
2018-06-03T01:26:44.626Z,3.00
2018-06-03T01:29:12.255Z,3.10
2018-06-03T01:31:39.887Z,3.30
2018-06-03T01:34:07.594Z,2.73
2018-06-03T01:36:35.212Z,3.37
2018-06-03T01:39:02.906Z,3.07
2018-06-03T01:41:31.048Z,3.17
2018-06-03T01:43:58.638Z,3.50
2018-06-03T01:46:26.286Z,3.33
2018-06-03T01:48:53.995Z,3.03
2018-06-03T01:51:21.585Z,3.37
2018-06-03T01:53:49.253Z,3.00
2018-06-03T01:56:17.004Z,3.50
2018-06-03T01:58:44.597Z,3.37
2018-06-03T02:01:12.215Z,3.47
2018-06-03T02:03:41.131Z,3.20
2018-06-03T02:06:08.798Z,3.40
2018-06-03T02:08:36.437Z,3.40
2018-06-03T02:11:04.611Z,3.53
2018-06-03T02:13:32.225Z,3.20
2018-06-03T02:15:59.838Z,3.50
2018-06-03T02:18:27.762Z,3.40
2018-06-03T02:20:55.347Z,4.13
2018-06-03T02:23:22.999Z,3.67
2018-06-03T02:25:50.693Z,3.53
2018-06-03T02:28:18.330Z,4.07
2018-06-03T02:30:46.008Z,3.50
2018-06-03T02:33:13.669Z,3.20
2018-06-03T02:35:41.296Z,3.10
2018-06-03T02:38:08.962Z,3.10
2018-06-03T02:40:36.662Z,3.10
2018-06-03T02:43:04.265Z,3.13
2018-06-03T02:45:31.993Z,3.60
2018-06-03T02:47:59.632Z,3.13
2018-06-03T02:50:27.307Z,3.20
2018-06-03T02:52:54.913Z,5.27
2018-06-03T02:55:22.876Z,4.17
2018-06-03T02:57:50.447Z,3.30
2018-06-03T03:00:18.110Z,3.50
2018-06-03T03:02:46.072Z,4.13
2018-06-03T03:05:13.653Z,3.57
2018-06-03T03:07:41.278Z,8.73
2018-06-03T03:10:08.959Z,5.67
2018-06-03T03:12:36.582Z,4.47
2018-06-03T03:15:04.319Z,3.87
2018-06-03T03:17:31.962Z,3.80
2018-06-03T03:19:59.562Z,4.40
2018-06-03T03:22:27.238Z,4.07
2018-06-03T03:24:55.207Z,4.53
2018-06-03T03:27:22.797Z,4.73
2018-06-03T03:29:50.376Z,4.80
2018-06-03T03:32:18.374Z,5.10
2018-06-03T03:34:45.945Z,5.77
2018-06-03T03:37:13.578Z,4.80
2018-06-03T03:39:41.816Z,4.70
2018-06-03T03:42:09.534Z,4.70
2018-06-03T03:44:37.193Z,4.43
2018-06-03T03:47:05.142Z,4.87
2018-06-03T03:49:32.761Z,4.30
2018-06-03T03:52:00.356Z,4.63
2018-06-03T03:54:28.320Z,4.37
2018-06-03T03:56:55.909Z,4.03
2018-06-03T03:59:23.566Z,23.13
2018-06-03T04:01:51.244Z,9.67
2018-06-03T04:04:18.874Z,5.90
2018-06-03T04:06:46.507Z,5.23
2018-06-03T04:09:14.339Z,4.70
2018-06-03T04:11:42.050Z,4.30
2018-06-03T04:14:09.702Z,3.70
2018-06-03T04:16:37.653Z,3.80
2018-06-03T04:19:05.227Z,3.77
2018-06-03T04:21:32.891Z,3.80
2018-06-03T04:24:00.905Z,4.70
2018-06-03T04:26:28.631Z,4.28
2018-06-03T04:28:56.245Z,4.40
2018-06-03T04:31:24.024Z,4.18
2018-06-03T04:33:51.608Z,3.78
2018-06-03T04:36:19.237Z,3.62
2018-06-03T04:38:47.219Z,5.90
2018-06-03T04:41:14.883Z,5.32
2018-06-03T04:43:42.423Z,3.87
2018-06-03T04:46:10.156Z,4.07
2018-06-03T04:48:37.740Z,4.75
2018-06-03T04:51:05.429Z,5.05
2018-06-03T04:53:33.085Z,5.32
2018-06-03T04:56:00.717Z,4.22
2018-06-03T04:58:28.414Z,4.87
2018-06-03T05:00:56.087Z,4.87
2018-06-03T05:03:23.724Z,4.30
2018-06-03T05:05:51.356Z,5.55
2018-06-03T05:08:19.082Z,6.35
2018-06-03T05:10:46.698Z,6.65
2018-06-03T05:13:14.395Z,6.47
2018-06-03T05:15:42.515Z,6.62
2018-06-03T05:18:10.121Z,7.35
2018-06-03T05:20:37.763Z,6.82
2018-06-03T05:23:05.694Z,7.60
2018-06-03T05:25:33.286Z,7.28
2018-06-03T05:28:00.917Z,7.70
2018-06-03T05:30:29.096Z,8.35
2018-06-03T05:32:56.679Z,7.97
2018-06-03T05:35:24.284Z,8.13
2018-06-03T05:37:52.286Z,7.50
2018-06-03T05:40:19.863Z,7.85
2018-06-03T05:42:47.582Z,7.45
2018-06-03T05:45:15.214Z,7.05
2018-06-03T05:47:42.815Z,5.10
2018-06-03T05:50:10.479Z,5.15
2018-06-03T05:52:38.222Z,6.40
2018-06-03T05:55:05.812Z,6.28
2018-06-03T05:57:33.471Z,6.18
2018-06-03T06:00:01.669Z,5.70
2018-06-03T06:02:29.411Z,6.85
2018-06-03T06:04:57.021Z,4.80
2018-06-03T06:07:24.744Z,5.18
2018-06-03T06:09:52.352Z,5.05
2018-06-03T06:12:20.014Z,5.53
2018-06-03T06:14:48.202Z,5.25
2018-06-03T06:17:15.779Z,5.25
2018-06-03T06:19:43.361Z,4.80
2018-06-03T06:22:11.629Z,5.18
2018-06-03T06:24:39.555Z,4.87
2018-06-03T06:27:07.223Z,5.57
2018-06-03T06:29:34.906Z,3.80
2018-06-03T06:32:02.538Z,4.03
2018-06-03T06:34:30.220Z,3.60
2018-06-03T06:36:57.907Z,3.62
2018-06-03T06:39:25.496Z,3.53
2018-06-03T06:41:53.151Z,3.72
2018-06-03T06:44:20.839Z,3.55
2018-06-03T06:46:48.469Z,3.95
2018-06-03T06:49:16.124Z,3.87
2018-06-03T06:51:44.082Z,3.35
2018-06-03T06:54:11.661Z,3.20
2018-06-03T06:56:39.314Z,3.30
2018-06-03T06:59:07.100Z,3.37
2018-06-03T07:01:34.760Z,3.30
2018-06-03T07:04:02.408Z,3.85
2018-06-03T07:06:30.113Z,3.60
2018-06-03T07:08:57.865Z,3.83
2018-06-03T07:11:25.440Z,3.87
2018-06-03T07:13:53.583Z,3.78
2018-06-03T07:16:21.179Z,3.85
2018-06-03T07:18:48.781Z,3.47
2018-06-03T07:21:16.685Z,3.97
2018-06-03T07:23:44.467Z,3.58
2018-06-03T07:26:12.173Z,4.00
2018-06-03T07:28:40.017Z,4.18
2018-06-03T07:31:07.729Z,4.18
2018-06-03T07:33:35.440Z,3.47
2018-06-03T07:36:03.324Z,4.03
2018-06-03T07:38:30.909Z,4.50
2018-06-03T07:40:58.573Z,3.90
2018-06-03T07:43:26.393Z,4.43
2018-06-03T07:45:54.081Z,4.60
2018-06-03T07:48:21.712Z,4.22
2018-06-03T07:50:49.553Z,5.37
2018-06-03T07:53:17.240Z,4.18
2018-06-03T07:55:44.885Z,4.40
2018-06-03T07:58:12.907Z,4.53
2018-06-03T08:00:40.500Z,4.90
2018-06-03T08:03:08.121Z,6.07
2018-06-03T08:05:36.055Z,4.47
2018-06-03T08:08:03.704Z,4.60
2018-06-03T08:10:31.399Z,5.37
2018-06-03T08:12:59.030Z,5.03
2018-06-03T08:15:26.622Z,4.70
2018-06-03T08:17:54.239Z,4.53
2018-06-03T08:20:22.372Z,4.72
2018-06-03T08:22:50.074Z,5.28
2018-06-03T08:25:17.851Z,5.43
2018-06-03T08:27:45.800Z,6.82
2018-06-03T08:30:13.661Z,5.25
2018-06-03T08:32:41.509Z,5.40
2018-06-03T08:35:09.616Z,4.72
2018-06-03T08:37:37.212Z,5.65
2018-06-03T08:40:04.827Z,4.87
2018-06-03T08:42:32.985Z,5.50
2018-06-03T08:45:00.563Z,5.87
2018-06-03T08:47:28.237Z,6.18
2018-06-03T08:49:55.914Z,5.32
2018-06-03T08:52:23.515Z,6.37
2018-06-03T08:54:51.220Z,5.57
2018-06-03T08:57:19.375Z,5.55
2018-06-03T08:59:46.971Z,5.47
2018-06-03T09:02:14.613Z,5.82
2018-06-03T09:04:42.466Z,5.37
2018-06-03T09:07:10.105Z,6.10
2018-06-03T09:09:37.720Z,6.68
2018-06-03T09:12:05.462Z,5.18
2018-06-03T09:14:33.080Z,6.00
2018-06-03T09:17:00.747Z,8.38
2018-06-03T09:19:28.570Z,7.12
2018-06-03T09:21:56.243Z,6.03
2018-06-03T09:24:23.911Z,11.10
2018-06-03T09:26:51.637Z,11.32
2018-06-03T09:29:19.236Z,7.43
2018-06-03T09:31:46.888Z,6.32
2018-06-03T09:34:14.564Z,8.80
2018-06-03T09:36:42.213Z,5.47
2018-06-03T09:39:09.891Z,5.93
2018-06-03T09:41:37.598Z,7.75
2018-06-03T09:44:05.244Z,5.18
2018-06-03T09:46:33.000Z,5.32
2018-06-03T09:49:01.038Z,5.50
2018-06-03T09:51:29.315Z,5.57
2018-06-03T09:53:56.900Z,5.78
2018-06-03T09:56:24.588Z,5.43
2018-06-03T09:58:52.187Z,5.30
2018-06-03T10:01:19.832Z,5.68
2018-06-03T10:03:47.708Z,5.47
2018-06-03T10:06:15.328Z,5.15
2018-06-03T10:09:12.469Z,5.28
2018-06-03T10:11:41.572Z,5.70
2018-06-03T10:14:10.708Z,5.40
2018-06-03T10:16:40.115Z,5.35
2018-06-03T10:19:09.051Z,6.15
2018-06-03T10:21:38.080Z,6.00
2018-06-03T10:24:07.032Z,6.00
2018-06-03T10:26:36.296Z,5.53
2018-06-03T10:29:05.409Z,5.90
2018-06-03T10:31:34.518Z,5.15
2018-06-03T10:34:03.710Z,5.20
2018-06-03T10:36:32.802Z,4.40
2018-06-03T10:39:02.333Z,5.30
2018-06-03T10:41:31.219Z,5.37
2018-06-03T10:44:00.251Z,5.42
2018-06-03T10:46:29.319Z,6.00
2018-06-03T10:48:58.318Z,5.40
2018-06-03T10:51:27.159Z,5.30
2018-06-03T10:53:56.461Z,5.05
2018-06-03T10:56:25.343Z,5.10
2018-06-03T10:58:54.312Z,5.72
2018-06-03T11:01:24.360Z,4.92
2018-06-03T11:03:53.351Z,4.90
2018-06-03T11:06:23.390Z,4.80
2018-06-03T11:08:53.293Z,4.67
2018-06-03T11:11:22.212Z,4.60
2018-06-03T11:13:51.375Z,4.28
2018-06-03T11:16:20.564Z,4.30
2018-06-03T11:18:49.602Z,4.40
2018-06-03T11:21:18.682Z,3.87
2018-06-03T11:23:47.711Z,4.53
2018-06-03T11:26:17.503Z,4.45
2018-06-03T11:28:47.392Z,3.92
2018-06-03T11:31:16.741Z,4.60
2018-06-03T11:33:45.637Z,5.35
2018-06-03T11:36:14.514Z,5.42
2018-06-03T11:38:43.818Z,4.25
2018-06-03T11:41:12.796Z,4.85
2018-06-03T11:43:41.913Z,4.50
2018-06-03T11:46:10.963Z,5.12
2018-06-03T11:48:40.842Z,4.75
2018-06-03T11:51:09.780Z,5.08
2018-06-03T11:53:39.416Z,5.33
2018-06-03T11:56:08.360Z,5.03
2018-06-03T11:58:54.381Z,4.70
2018-06-03T12:01:23.806Z,5.15
2018-06-03T12:03:52.992Z,4.53
2018-06-03T12:06:22.284Z,5.35
2018-06-03T12:08:51.195Z,5.75
2018-06-03T12:11:20.249Z,5.03
2018-06-03T12:13:49.547Z,4.30
2018-06-03T12:16:18.522Z,4.72
2018-06-03T12:18:47.525Z,4.53
2018-06-03T12:21:17.035Z,5.05
2018-06-03T12:23:46.034Z,5.25
2018-06-03T12:26:15.143Z,5.33
2018-06-03T12:28:44.313Z,5.12
2018-06-03T12:31:13.371Z,4.97
2018-06-03T12:33:42.654Z,4.30
2018-06-03T12:36:12.058Z,4.53
2018-06-03T12:38:41.421Z,4.30
2018-06-03T12:41:10.451Z,4.58
2018-06-03T12:43:40.003Z,4.10
2018-06-03T12:46:09.039Z,4.53
2018-06-03T12:48:38.863Z,4.30
2018-06-03T12:51:08.491Z,3.30
2018-06-03T13:00:22.792Z,3.80
2018-06-03T13:02:51.754Z,5.20
2018-06-03T13:05:20.837Z,4.80
2018-06-03T13:07:50.295Z,5.08
2018-06-03T13:10:19.271Z,5.15
2018-06-03T13:12:48.413Z,4.70
2018-06-03T13:15:17.763Z,5.30
2018-06-03T13:17:46.675Z,4.75
2018-06-03T13:20:15.662Z,4.90
2018-06-03T13:22:45.090Z,5.80
2018-06-03T13:25:14.183Z,5.42
2018-06-03T13:27:43.396Z,4.90
2018-06-03T13:30:13.158Z,5.00
2018-06-03T13:32:42.300Z,4.62
2018-06-03T13:35:12.090Z,6.70
2018-06-03T13:37:41.490Z,6.95
2018-06-03T13:40:10.623Z,6.03
2018-06-03T13:42:39.620Z,5.15
2018-06-03T13:45:08.924Z,4.83
2018-06-03T13:47:37.966Z,4.75
2018-06-03T13:50:06.901Z,4.72
2018-06-03T13:52:35.912Z,5.37
2018-06-03T13:55:04.926Z,4.90
2018-06-03T13:57:33.875Z,4.42
2018-06-03T14:00:03.265Z,4.40
2018-06-03T14:02:32.142Z,5.25
2018-06-03T14:05:01.196Z,5.15
2018-06-03T14:07:30.235Z,4.62
2018-06-03T14:09:59.321Z,4.67
2018-06-03T14:12:28.363Z,4.72
2018-06-03T14:14:57.637Z,4.35
2018-06-03T14:17:26.545Z,4.35
2018-06-03T14:19:55.481Z,4.15
2018-06-03T14:22:24.727Z,4.60
2018-06-03T14:24:53.741Z,4.47
2018-06-03T14:27:22.843Z,4.40
2018-06-03T14:29:51.928Z,4.53
2018-06-03T14:32:20.992Z,4.42
2018-06-03T14:34:49.983Z,4.17
2018-06-03T14:37:19.420Z,4.92
2018-06-03T14:39:48.289Z,5.10
2018-06-03T14:42:17.280Z,4.72
2018-06-03T14:44:46.220Z,6.62
2018-06-03T14:47:15.167Z,4.40
2018-06-03T14:49:44.116Z,5.05
2018-06-03T14:52:13.506Z,4.10
2018-06-03T14:54:42.582Z,5.25
2018-06-03T14:57:11.663Z,4.47
2018-06-03T14:59:40.973Z,5.37
2018-06-03T15:02:10.025Z,4.17
2018-06-03T15:04:38.993Z,4.53
2018-06-03T15:07:08.302Z,3.85
2018-06-03T15:09:37.383Z,4.05
2018-06-03T15:12:06.401Z,4.90
2018-06-03T15:14:35.796Z,4.65
2018-06-03T15:17:05.806Z,4.20
2018-06-03T15:19:34.881Z,5.72
2018-06-03T15:22:04.157Z,4.25
2018-06-03T15:24:33.204Z,4.12
2018-06-03T15:27:02.273Z,4.45
2018-06-03T15:29:31.235Z,4.60
2018-06-03T15:32:00.043Z,4.53
2018-06-03T15:34:29.148Z,4.33
2018-06-03T15:36:58.147Z,4.08
2018-06-03T15:39:27.725Z,4.67
2018-06-03T15:41:56.720Z,3.80
2018-06-03T15:44:25.640Z,4.42
2018-06-03T15:46:54.747Z,4.45
2018-06-03T15:49:23.921Z,4.00
2018-06-03T15:51:53.893Z,4.60
2018-06-03T15:54:22.813Z,4.90
2018-06-03T15:56:51.759Z,4.50
2018-06-03T15:59:21.135Z,4.47
2018-06-03T16:01:50.252Z,4.45
2018-06-03T16:04:19.274Z,4.55
2018-06-03T16:06:48.616Z,4.70
2018-06-03T16:09:17.692Z,6.15
2018-06-03T16:11:46.733Z,5.15
2018-06-03T16:14:16.078Z,4.80
2018-06-03T16:16:45.073Z,5.28
2018-06-03T16:19:14.007Z,4.67
2018-06-03T16:21:43.314Z,4.75
2018-06-03T16:24:12.325Z,5.15
2018-06-03T16:26:41.316Z,4.72
2018-06-03T16:29:10.439Z,4.97
2018-06-03T16:31:39.515Z,4.80
2018-06-03T16:34:08.586Z,5.40
2018-06-03T16:36:37.808Z,5.50
2018-06-03T16:39:08.029Z,6.87
2018-06-03T16:41:37.369Z,8.33
2018-06-03T16:44:06.737Z,13.55
2018-06-03T16:46:35.819Z,6.28
2018-06-03T16:49:04.894Z,5.87
2018-06-03T16:51:33.892Z,5.25
2018-06-03T16:54:02.906Z,6.20
2018-06-03T16:56:31.991Z,5.40
2018-06-03T17:05:46.651Z,5.53
2018-06-03T17:08:15.666Z,5.00
2018-06-03T17:10:44.679Z,5.60
2018-06-03T17:13:13.716Z,5.08
2018-06-03T17:15:42.771Z,4.78
2018-06-03T17:18:11.833Z,5.85
2018-06-03T17:20:40.793Z,5.62
2018-06-03T17:23:09.876Z,5.47
2018-06-03T17:25:38.940Z,5.47
2018-06-03T17:28:08.090Z,5.87
2018-06-03T17:30:37.044Z,6.12
2018-06-03T17:33:06.112Z,5.35
2018-06-03T17:35:35.443Z,5.58
2018-06-03T17:38:04.407Z,5.80
2018-06-03T17:41:36.124Z,5.17
2018-06-03T17:44:05.344Z,5.75
2018-06-03T17:46:34.666Z,5.45
2018-06-03T17:49:03.779Z,6.60
2018-06-03T17:51:33.796Z,7.10
2018-06-03T17:54:02.877Z,5.47
2018-06-03T17:56:32.336Z,5.75
2018-06-03T17:59:01.501Z,5.55
2018-06-03T18:01:30.509Z,5.97
2018-06-03T18:03:59.463Z,6.10
2018-06-03T18:06:28.571Z,5.40
2018-06-03T18:08:57.864Z,6.20
2018-06-03T18:11:27.216Z,5.83
2018-06-03T18:13:56.208Z,5.65
2018-06-03T18:16:25.292Z,6.12
2018-06-03T18:18:55.326Z,6.00
2018-06-03T18:21:24.394Z,5.22
2018-06-03T18:23:53.358Z,6.00
2018-06-03T18:26:22.284Z,5.55
2018-06-03T18:28:51.358Z,5.35
2018-06-03T18:31:20.534Z,5.92
2018-06-03T18:33:49.618Z,6.20
2018-06-03T18:36:18.637Z,5.62
2018-06-03T18:38:47.855Z,6.22
2018-06-03T18:41:17.384Z,7.00
2018-06-03T18:43:46.277Z,5.42
2018-06-03T18:46:15.260Z,6.25
2018-06-03T18:48:44.405Z,6.75
2018-06-03T18:51:13.359Z,6.42
2018-06-03T18:53:42.329Z,6.28
2018-06-03T18:56:11.582Z,6.28
2018-06-03T18:58:40.899Z,6.42
2018-06-03T19:01:09.937Z,7.20
2018-06-03T19:03:39.213Z,6.65
2018-06-03T19:06:08.080Z,6.28
2018-06-03T19:08:37.177Z,6.55
2018-06-03T19:11:06.198Z,6.83
2018-06-03T19:13:35.354Z,6.37
2018-06-03T19:16:04.289Z,6.37
2018-06-03T19:18:33.206Z,6.62
2018-06-03T19:21:02.227Z,6.00
2018-06-03T19:23:31.213Z,6.30
2018-06-03T19:26:00.331Z,6.75
2018-06-03T19:28:29.405Z,6.90
2018-06-03T19:30:58.503Z,6.33
2018-06-03T19:33:27.888Z,6.42
2018-06-03T19:35:56.814Z,7.00
2018-06-03T19:38:25.636Z,7.53
2018-06-03T19:40:55.304Z,7.55
2018-06-03T19:43:24.149Z,6.92
2018-06-03T19:45:53.214Z,6.87
2018-06-03T19:48:22.334Z,6.97
2018-06-03T19:50:51.467Z,7.75
2018-06-03T19:53:20.502Z,7.33
2018-06-03T19:55:49.665Z,8.00
2018-06-03T19:58:18.743Z,6.95
2018-06-03T20:00:47.848Z,7.27
2018-06-03T20:03:17.468Z,7.53
2018-06-03T20:05:46.386Z,7.00
2018-06-03T20:08:15.532Z,8.20
2018-06-03T20:10:44.939Z,7.73
2018-06-03T20:13:14.872Z,7.57
2018-06-03T20:15:43.777Z,7.20
2018-06-03T20:18:13.155Z,7.20
2018-06-03T20:20:42.169Z,7.00
2018-06-03T20:23:11.268Z,6.60
2018-06-03T20:25:40.715Z,7.00
2018-06-03T20:28:09.653Z,6.97
2018-06-03T20:30:38.712Z,7.27
2018-06-03T20:33:07.693Z,6.77
2018-06-03T20:35:36.764Z,7.23
2018-06-03T20:38:06.024Z,8.00
2018-06-03T20:40:35.140Z,7.07
2018-06-03T20:43:04.312Z,7.00
2018-06-03T20:45:33.168Z,6.63
2018-06-03T20:48:02.186Z,6.50
2018-06-03T20:50:31.236Z,7.27
2018-06-03T20:53:00.163Z,7.47
2018-06-03T20:55:29.623Z,6.67
2018-06-03T20:57:58.492Z,6.80
2018-06-03T21:00:27.587Z,7.60
2018-06-03T21:02:56.654Z,6.80
2018-06-03T21:05:25.736Z,7.50
2018-06-03T21:07:54.787Z,7.40
2018-06-03T21:10:23.890Z,7.93
2018-06-03T21:12:52.972Z,7.60
2018-06-03T21:15:22.005Z,7.23
2018-06-03T21:17:51.186Z,7.17
2018-06-03T21:20:20.240Z,7.87
2018-06-03T21:22:49.232Z,7.17
2018-06-03T21:25:18.736Z,7.57
2018-06-03T21:27:47.791Z,7.57
2018-06-03T21:30:16.802Z,7.77
2018-06-03T21:32:45.818Z,7.13
2018-06-03T21:35:14.881Z,8.43
2018-06-03T21:37:43.801Z,8.03
2018-06-03T21:40:12.973Z,9.03
2018-06-03T21:42:42.041Z,8.17
2018-06-03T21:45:11.080Z,8.40
2018-06-03T21:47:40.560Z,8.27
2018-06-03T21:50:09.409Z,8.57
2018-06-03T21:52:38.431Z,8.90
2018-06-03T21:55:07.828Z,9.27
2018-06-03T21:57:36.808Z,9.03
2018-06-03T22:00:06.767Z,8.87
2018-06-03T22:02:35.925Z,9.10
2018-06-03T22:05:05.090Z,9.43
2018-06-03T22:07:34.199Z,9.03
2018-06-03T22:10:03.387Z,9.57
2018-06-03T22:12:32.480Z,9.83
2018-06-03T22:15:01.497Z,10.10
2018-06-03T22:17:30.753Z,8.77
2018-06-03T22:21:28.941Z,9.47
2018-06-03T22:23:58.416Z,9.80
2018-06-03T22:26:27.485Z,10.47
2018-06-03T22:28:56.523Z,10.03
2018-06-03T22:31:25.787Z,10.20
2018-06-03T22:33:54.924Z,10.00
2018-06-03T22:36:24.065Z,10.63
2018-06-03T22:38:53.454Z,10.83
2018-06-03T22:41:22.596Z,11.30
2018-06-03T22:43:51.662Z,11.50
2018-06-03T22:46:20.989Z,11.37
2018-06-03T22:48:50.012Z,12.33
2018-06-03T22:51:19.194Z,12.80
2018-06-03T22:53:48.377Z,12.37
2018-06-03T22:56:17.885Z,13.47
2018-06-03T22:59:49.486Z,12.87
2018-06-03T23:02:18.542Z,13.80
2018-06-03T23:04:47.963Z,13.93
2018-06-03T23:07:16.999Z,14.60
2018-06-03T23:09:46.085Z,13.93
2018-06-03T23:12:15.230Z,14.97
2018-06-03T23:14:44.228Z,14.97
2018-06-03T23:17:13.618Z,14.23
2018-06-03T23:19:42.686Z,14.43
2018-06-03T23:22:11.931Z,14.40
2018-06-03T23:24:41.065Z,14.53
2018-06-03T23:27:10.020Z,13.57
2018-06-03T23:29:39.292Z,13.67
2018-06-03T23:32:08.403Z,13.43
2018-06-03T23:34:37.387Z,14.23
2018-06-03T23:37:06.737Z,13.50
2018-06-03T23:39:35.780Z,13.27
2018-06-03T23:42:04.928Z,13.93
2018-06-03T23:44:34.131Z,13.23
2018-06-03T23:47:03.271Z,13.40
2018-06-03T23:49:32.416Z,14.03
2018-06-03T23:52:01.529Z,15.00
2018-06-03T23:54:30.869Z,14.90
2018-06-03T23:56:59.847Z,14.97
2018-06-03T23:59:28.969Z,14.53
